createdAt,value
2023-03-15T00:01:48.978Z,5.72
2023-03-15T00:04:15.705Z,4.50
2023-03-15T00:06:42.415Z,6.68
2023-03-15T00:09:09.106Z,5.55
2023-03-15T00:11:35.786Z,5.68
2023-03-15T00:14:02.640Z,7.90
2023-03-15T00:16:29.675Z,4.88
2023-03-15T00:18:56.764Z,5.72
2023-03-15T00:21:23.682Z,7.20
2023-03-15T00:23:50.761Z,8.45
2023-03-15T00:26:17.574Z,10.40
2023-03-15T00:28:44.228Z,9.07
2023-03-15T00:31:17.239Z,10.20
2023-03-15T00:36:11.876Z,11.05
2023-03-15T00:38:39.602Z,9.75
2023-03-15T00:41:08.528Z,11.10
2023-03-15T00:43:35.367Z,10.90
2023-03-15T00:46:02.843Z,12.93
2023-03-15T00:48:29.581Z,11.07
2023-03-15T00:51:03.952Z,9.85
2023-03-15T00:53:30.625Z,9.18
2023-03-15T00:55:57.357Z,11.93
2023-03-15T00:58:26.453Z,11.18
2023-03-15T01:00:54.224Z,12.52
2023-03-15T01:03:21.002Z,12.40
2023-03-15T01:05:47.758Z,10.80
2023-03-15T01:08:14.448Z,14.32
2023-03-15T01:10:41.152Z,15.70
2023-03-15T01:13:07.836Z,14.40
2023-03-15T01:15:34.583Z,14.20
2023-03-15T01:18:01.244Z,12.27
2023-03-15T01:20:27.974Z,13.50
2023-03-15T01:22:55.921Z,17.50
2023-03-15T01:25:22.604Z,16.25
2023-03-15T01:27:49.285Z,13.68
2023-03-15T01:30:16.139Z,12.55
2023-03-15T01:32:42.889Z,17.27
2023-03-15T01:35:09.873Z,16.23
2023-03-15T01:37:36.570Z,12.80
2023-03-15T01:40:06.413Z,11.10
2023-03-15T01:42:33.220Z,10.80
2023-03-15T01:45:00.207Z,11.73
2023-03-15T01:47:27.115Z,12.10
2023-03-15T01:50:14.012Z,10.65
2023-03-15T01:52:40.958Z,13.13
2023-03-15T01:55:13.248Z,11.13
2023-03-15T01:57:51.004Z,11.75
2023-03-15T02:00:20.035Z,9.70
2023-03-15T02:02:49.769Z,10.48
2023-03-15T02:05:26.665Z,11.50
2023-03-15T02:07:54.859Z,7.35
2023-03-15T02:10:29.380Z,9.85
2023-03-15T02:12:56.122Z,9.57
2023-03-15T02:15:23.231Z,9.20
2023-03-15T02:17:50.162Z,8.45
2023-03-15T02:20:27.552Z,7.03
2023-03-15T02:22:59.290Z,9.02
2023-03-15T02:25:36.004Z,8.82
2023-03-15T02:28:04.161Z,5.65
2023-03-15T02:30:31.003Z,4.10
2023-03-15T02:32:58.794Z,6.40
2023-03-15T02:35:29.952Z,7.10
2023-03-15T02:37:56.641Z,7.88
2023-03-15T02:40:24.930Z,8.38
2023-03-15T02:42:53.572Z,7.45
2023-03-15T02:45:20.546Z,4.97
2023-03-15T02:47:47.574Z,7.07
2023-03-15T02:50:14.436Z,6.25
2023-03-15T02:52:41.112Z,9.05
2023-03-15T02:55:08.361Z,5.05
2023-03-15T02:57:35.093Z,7.05
2023-03-15T03:00:07.371Z,6.60
2023-03-15T03:02:34.130Z,11.38
2023-03-15T03:05:00.881Z,7.18
2023-03-15T03:07:27.595Z,5.07
2023-03-15T03:09:54.362Z,6.22
2023-03-15T03:12:21.186Z,8.57
2023-03-15T03:14:47.955Z,5.25
2023-03-15T03:17:14.836Z,4.38
2023-03-15T03:19:41.546Z,4.10
2023-03-15T03:22:08.267Z,8.20
2023-03-15T03:24:35.002Z,5.30
2023-03-15T03:27:01.841Z,10.35
2023-03-15T03:29:28.570Z,5.53
2023-03-15T03:31:55.326Z,6.20
2023-03-15T03:34:22.117Z,6.13
2023-03-15T03:36:48.814Z,7.95
2023-03-15T03:39:15.620Z,4.22
2023-03-15T03:41:42.353Z,3.95
2023-03-15T03:44:09.091Z,6.60
2023-03-15T03:46:36.444Z,7.53
2023-03-15T03:49:03.146Z,5.90
2023-03-15T03:51:29.884Z,4.30
2023-03-15T03:53:56.565Z,3.40
2023-03-15T03:56:23.308Z,4.65
2023-03-15T03:58:50.067Z,7.03
2023-03-15T04:01:17.051Z,6.18
2023-03-15T04:03:43.727Z,8.30
2023-03-15T04:06:10.431Z,8.25
2023-03-15T04:08:37.160Z,6.93
2023-03-15T04:11:04.195Z,6.82
2023-03-15T04:13:31.454Z,5.95
2023-03-15T04:15:58.354Z,10.57
2023-03-15T04:18:25.217Z,7.20
2023-03-15T04:20:54.792Z,8.65
2023-03-15T04:23:22.775Z,7.63
2023-03-15T04:25:50.505Z,7.70
2023-03-15T04:28:18.325Z,6.50
2023-03-15T04:30:45.782Z,7.90
2023-03-15T04:33:12.517Z,7.07
2023-03-15T04:35:39.686Z,11.85
2023-03-15T04:38:06.748Z,6.78
2023-03-15T04:40:35.224Z,10.07
2023-03-15T04:43:03.781Z,4.93
2023-03-15T04:45:34.302Z,9.90
2023-03-15T04:48:01.652Z,11.48
2023-03-15T04:50:29.441Z,7.40
2023-03-15T04:52:57.565Z,7.28
2023-03-15T04:55:24.296Z,9.13
2023-03-15T04:57:50.977Z,17.73
2023-03-15T05:00:18.061Z,9.52
2023-03-15T05:02:44.843Z,9.52
2023-03-15T05:05:12.369Z,7.32
2023-03-15T05:07:39.236Z,7.13
2023-03-15T05:10:07.055Z,9.80
2023-03-15T05:12:36.435Z,7.07
2023-03-15T05:15:03.262Z,11.73
2023-03-15T05:17:29.994Z,8.95
2023-03-15T05:19:56.733Z,11.85
2023-03-15T05:22:26.088Z,13.85
2023-03-15T05:24:53.884Z,13.93
2023-03-15T05:27:21.009Z,10.45
2023-03-15T05:29:47.808Z,11.90
2023-03-15T05:32:14.518Z,10.40
2023-03-15T05:34:42.917Z,9.70
2023-03-15T05:37:09.708Z,5.70
2023-03-15T05:39:36.554Z,11.05
2023-03-15T05:42:03.337Z,9.45
2023-03-15T05:44:30.028Z,11.73
2023-03-15T05:46:56.656Z,9.88
2023-03-15T05:49:23.327Z,10.13
2023-03-15T05:51:49.966Z,10.55
2023-03-15T05:54:16.792Z,9.55
2023-03-15T05:56:43.451Z,14.70
2023-03-15T05:59:10.154Z,10.68
2023-03-15T06:01:36.829Z,12.93
2023-03-15T06:04:03.948Z,14.07
2023-03-15T06:06:33.289Z,8.30
2023-03-15T06:09:00.784Z,9.13
2023-03-15T06:11:27.781Z,7.75
2023-03-15T06:13:54.631Z,9.05
2023-03-15T06:16:21.561Z,11.88
2023-03-15T06:18:48.283Z,7.60
2023-03-15T06:21:14.985Z,7.18
2023-03-15T06:23:41.639Z,6.47
2023-03-15T06:26:08.742Z,10.25
2023-03-15T06:28:35.513Z,10.07
2023-03-15T06:31:08.779Z,8.95
2023-03-15T06:33:35.776Z,8.48
2023-03-15T06:36:02.900Z,11.40
2023-03-15T06:38:31.280Z,11.15
2023-03-15T06:41:00.990Z,6.75
2023-03-15T06:43:28.193Z,8.02
2023-03-15T06:45:56.124Z,10.93
2023-03-15T06:48:22.974Z,13.27
2023-03-15T06:50:49.673Z,10.60
2023-03-15T06:53:16.750Z,8.73
2023-03-15T06:55:43.962Z,10.15
2023-03-15T06:58:11.138Z,5.05
2023-03-15T07:00:38.334Z,8.73
2023-03-15T07:03:05.119Z,8.10
2023-03-15T07:05:31.953Z,6.38
2023-03-15T07:07:58.715Z,14.45
2023-03-15T07:10:25.665Z,10.20
2023-03-15T07:12:52.351Z,11.80
2023-03-15T07:15:19.092Z,9.52
2023-03-15T07:17:45.749Z,9.90
2023-03-15T07:20:12.677Z,9.25
2023-03-15T07:22:39.358Z,10.75
2023-03-15T07:25:07.616Z,8.68
2023-03-15T07:27:34.432Z,6.55
2023-03-15T07:30:01.422Z,9.68
2023-03-15T07:32:28.324Z,9.00
2023-03-15T07:34:58.401Z,10.93
2023-03-15T07:37:25.079Z,8.60
2023-03-15T07:39:51.852Z,12.63
2023-03-15T07:42:18.602Z,11.65
2023-03-15T07:44:45.323Z,6.57
2023-03-15T07:47:12.072Z,9.38
2023-03-15T07:49:38.769Z,7.13
2023-03-15T07:52:05.524Z,6.10
2023-03-15T07:54:34.441Z,6.18
2023-03-15T07:57:01.150Z,10.13
2023-03-15T07:59:28.035Z,8.57
2023-03-15T08:01:55.083Z,4.63
2023-03-15T08:04:21.845Z,5.43
2023-03-15T08:06:48.514Z,9.65
2023-03-15T08:09:15.208Z,5.43
2023-03-15T08:11:43.441Z,5.88
2023-03-15T08:14:11.420Z,7.07
2023-03-15T08:16:38.152Z,9.00
2023-03-15T08:19:05.033Z,4.43
2023-03-15T08:21:34.151Z,4.57
2023-03-15T08:24:01.451Z,8.07
2023-03-15T08:26:28.123Z,5.53
2023-03-15T08:28:54.811Z,7.38
2023-03-15T08:31:21.780Z,4.57
2023-03-15T08:33:48.521Z,9.18
2023-03-15T08:36:15.314Z,4.05
2023-03-15T08:38:42.283Z,6.10
2023-03-15T08:41:09.029Z,6.90
2023-03-15T08:43:35.719Z,6.05
2023-03-15T08:46:02.534Z,6.53
2023-03-15T08:48:29.748Z,4.15
2023-03-15T08:50:57.643Z,4.15
2023-03-15T08:53:24.597Z,5.70
2023-03-15T08:55:51.639Z,5.78
2023-03-15T08:58:18.483Z,5.25
2023-03-15T09:00:45.371Z,3.38
2023-03-15T09:03:12.292Z,4.30
2023-03-15T09:05:39.139Z,4.85
2023-03-15T09:08:05.937Z,4.25
2023-03-15T09:10:34.601Z,3.55
2023-03-15T09:13:01.544Z,6.75
2023-03-15T09:15:28.518Z,4.55
2023-03-15T09:17:55.208Z,6.18
2023-03-15T09:20:24.184Z,4.40
2023-03-15T09:22:52.974Z,4.97
2023-03-15T09:25:20.275Z,5.75
2023-03-15T09:27:47.066Z,4.40
2023-03-15T09:30:14.432Z,4.57
2023-03-15T09:32:41.536Z,2.60
2023-03-15T09:35:11.597Z,4.43
2023-03-15T09:37:38.345Z,8.18
2023-03-15T09:40:07.396Z,7.13
2023-03-15T09:42:58.917Z,5.20
2023-03-15T09:45:44.534Z,6.25
2023-03-15T09:48:21.892Z,6.70
2023-03-15T09:51:19.260Z,4.82
2023-03-15T09:53:51.515Z,4.55
2023-03-15T09:56:28.824Z,5.73
2023-03-15T09:58:58.452Z,2.05
2023-03-15T10:01:33.316Z,5.75
2023-03-15T10:04:03.688Z,4.05
2023-03-15T10:06:36.469Z,6.10
2023-03-15T10:09:11.045Z,4.90
2023-03-15T10:11:58.450Z,4.50
2023-03-15T10:14:28.569Z,3.22
2023-03-15T10:16:55.254Z,6.90
2023-03-15T10:19:46.016Z,4.57
2023-03-15T10:22:35.732Z,3.60
2023-03-15T10:25:14.891Z,3.60
2023-03-15T10:27:55.032Z,3.17
2023-03-15T10:30:27.851Z,5.22
2023-03-15T10:33:18.783Z,4.88
2023-03-15T10:35:45.810Z,5.18
2023-03-15T10:38:21.085Z,2.63
2023-03-15T10:40:58.540Z,5.15
2023-03-15T10:43:26.298Z,3.75
2023-03-15T10:46:02.171Z,6.53
2023-03-15T10:48:30.518Z,4.72
2023-03-15T10:50:59.224Z,4.65
2023-03-15T10:53:26.158Z,5.45
2023-03-15T10:56:06.987Z,6.57
2023-03-15T10:59:05.373Z,3.50
2023-03-15T11:01:36.038Z,3.42
2023-03-15T11:04:02.834Z,5.35
2023-03-15T11:06:29.719Z,6.35
2023-03-15T11:09:11.879Z,5.32
2023-03-15T11:11:58.577Z,4.72
2023-03-15T11:14:27.081Z,5.35
2023-03-15T11:16:56.493Z,6.50
2023-03-15T11:19:28.199Z,4.05
2023-03-15T11:21:55.278Z,4.32
2023-03-15T11:24:30.345Z,4.43
2023-03-15T11:27:01.705Z,3.20
2023-03-15T11:29:32.668Z,5.90
2023-03-15T11:32:01.196Z,5.47
2023-03-15T11:34:43.131Z,2.63
2023-03-15T11:37:31.433Z,2.60
2023-03-15T11:40:10.433Z,2.78
2023-03-15T11:43:05.961Z,1.95
2023-03-15T11:45:38.865Z,5.88
2023-03-15T11:48:16.937Z,5.70
2023-03-15T11:50:43.918Z,1.13
2023-03-15T11:53:14.672Z,2.33
2023-03-15T11:55:41.357Z,2.42
2023-03-15T11:58:28.276Z,3.20
2023-03-15T12:01:05.853Z,3.28
2023-03-15T12:03:40.557Z,2.47
2023-03-15T12:06:10.212Z,3.25
2023-03-15T12:08:42.942Z,4.93
2023-03-15T12:11:21.737Z,1.75
2023-03-15T12:13:57.675Z,1.90
2023-03-15T12:16:30.172Z,1.75
2023-03-15T12:19:02.062Z,3.90
2023-03-15T12:21:33.883Z,2.85
2023-03-15T12:24:06.326Z,3.88
2023-03-15T12:26:42.175Z,1.98
2023-03-15T12:29:12.314Z,3.33
2023-03-15T12:31:49.784Z,4.35
2023-03-15T12:34:26.372Z,3.60
2023-03-15T12:36:55.654Z,5.30
2023-03-15T12:39:38.322Z,3.13
2023-03-15T12:42:06.897Z,1.90
2023-03-15T12:44:33.744Z,2.88
2023-03-15T12:47:01.708Z,5.10
2023-03-15T12:49:31.311Z,2.97
2023-03-15T12:52:11.668Z,3.95
2023-03-15T12:54:54.519Z,2.08
2023-03-15T12:57:29.932Z,4.85
2023-03-15T13:00:02.274Z,2.47
2023-03-15T13:02:42.582Z,5.72
2023-03-15T13:05:09.824Z,3.25
2023-03-15T13:07:51.138Z,5.75
2023-03-15T13:10:37.861Z,5.38
2023-03-15T13:13:12.090Z,4.95
2023-03-15T13:16:25.377Z,5.18
2023-03-15T13:18:54.850Z,3.08
2023-03-15T13:21:40.120Z,5.22
2023-03-15T13:24:16.763Z,3.45
2023-03-15T13:26:52.427Z,4.22
2023-03-15T13:29:29.959Z,3.40
2023-03-15T13:32:18.695Z,3.70
2023-03-15T13:34:46.809Z,3.67
2023-03-15T13:37:22.049Z,3.50
2023-03-15T13:40:06.209Z,2.92
2023-03-15T13:42:33.047Z,3.08
2023-03-15T13:45:18.050Z,3.95
2023-03-15T13:47:46.051Z,2.80
2023-03-15T13:50:18.249Z,3.05
2023-03-15T13:52:45.195Z,3.03
2023-03-15T13:55:16.589Z,5.85
2023-03-15T13:57:43.300Z,2.17
2023-03-15T14:00:13.846Z,3.28
2023-03-15T14:02:45.719Z,5.57
2023-03-15T14:05:18.000Z,3.13
2023-03-15T14:08:04.947Z,3.63
2023-03-15T14:10:36.746Z,5.35
2023-03-15T14:13:29.683Z,5.30
2023-03-15T14:15:59.129Z,4.53
2023-03-15T14:18:28.562Z,3.05
2023-03-15T14:21:17.232Z,3.63
2023-03-15T14:23:45.889Z,3.63
2023-03-15T14:26:32.799Z,5.40
2023-03-15T14:29:05.440Z,2.03
2023-03-15T14:31:39.816Z,2.88
2023-03-15T14:34:20.520Z,1.98
2023-03-15T14:36:51.452Z,2.67
2023-03-15T14:39:37.436Z,2.67
2023-03-15T14:42:04.500Z,2.50
2023-03-15T14:44:31.642Z,1.50
2023-03-15T14:46:59.227Z,2.28
2023-03-15T14:49:28.056Z,2.63
2023-03-15T14:52:03.313Z,3.08
2023-03-15T14:54:30.775Z,3.08
2023-03-15T14:56:57.976Z,2.00
2023-03-15T14:59:25.035Z,2.47
2023-03-15T15:01:54.333Z,2.90
2023-03-15T15:04:21.818Z,2.05
2023-03-15T15:06:52.367Z,3.47
2023-03-15T15:09:24.199Z,2.85
2023-03-15T15:11:51.735Z,2.78
2023-03-15T15:14:19.214Z,1.98
2023-03-15T15:16:46.455Z,2.08
2023-03-15T15:19:13.742Z,3.78
2023-03-15T15:21:42.253Z,2.88
2023-03-15T15:24:15.448Z,4.07
2023-03-15T15:26:42.593Z,1.38
2023-03-15T15:29:14.316Z,2.90
2023-03-15T15:31:41.781Z,3.05
2023-03-15T15:34:08.708Z,2.22
2023-03-15T15:36:41.076Z,1.40
2023-03-15T15:39:26.233Z,1.42
2023-03-15T15:41:52.992Z,5.32
2023-03-15T15:44:22.208Z,4.28
2023-03-15T15:46:49.498Z,2.80
2023-03-15T15:49:16.963Z,5.32
2023-03-15T15:51:49.744Z,6.32
2023-03-15T15:54:21.997Z,6.13
2023-03-15T15:56:51.301Z,4.63
2023-03-15T15:59:18.511Z,4.97
2023-03-15T16:01:59.621Z,5.97
2023-03-15T16:04:27.163Z,6.88
2023-03-15T16:07:01.833Z,4.43
2023-03-15T16:09:30.163Z,6.63
2023-03-15T16:11:56.991Z,4.90
2023-03-15T16:14:23.680Z,3.78
2023-03-15T16:16:50.902Z,3.92
2023-03-15T16:19:17.829Z,4.03
2023-03-15T16:21:47.617Z,4.53
2023-03-15T16:24:17.903Z,3.05
2023-03-15T16:26:45.225Z,3.13
2023-03-15T16:29:18.156Z,3.05
2023-03-15T16:31:48.630Z,4.90
2023-03-15T16:34:17.170Z,5.60
2023-03-15T16:36:48.935Z,2.70
2023-03-15T16:39:16.483Z,7.25
2023-03-15T16:41:43.180Z,8.50
2023-03-15T16:44:17.510Z,10.35
2023-03-15T16:46:47.786Z,5.05
2023-03-15T16:49:15.671Z,5.95
2023-03-15T16:51:48.255Z,4.85
2023-03-15T16:54:27.286Z,7.07
2023-03-15T16:56:57.857Z,5.18
2023-03-15T16:59:25.073Z,8.18
2023-03-15T17:01:51.903Z,4.65
2023-03-15T17:04:22.259Z,5.97
2023-03-15T17:09:18.637Z,5.40
2023-03-15T17:11:46.786Z,4.82
2023-03-15T17:14:20.199Z,4.97
2023-03-15T17:16:46.990Z,4.03
2023-03-15T17:19:14.390Z,4.55
2023-03-15T17:21:41.644Z,4.70
2023-03-15T17:24:09.807Z,6.63
2023-03-15T17:26:37.262Z,5.75
2023-03-15T17:29:04.265Z,3.75
2023-03-15T17:31:31.977Z,5.55
2023-03-15T17:33:58.817Z,9.73
2023-03-15T17:36:26.379Z,6.78
2023-03-15T17:38:53.839Z,7.95
2023-03-15T17:41:30.976Z,8.27
2023-03-15T17:43:57.841Z,6.38
2023-03-15T17:46:30.192Z,7.10
2023-03-15T17:48:58.430Z,9.75
2023-03-15T17:51:27.354Z,8.75
2023-03-15T17:53:55.161Z,10.82
2023-03-15T17:56:24.815Z,16.58
2023-03-15T17:58:52.634Z,13.18
2023-03-15T18:01:21.694Z,9.55
2023-03-15T18:03:49.428Z,15.68
2023-03-15T18:06:17.509Z,14.77
2023-03-15T18:08:44.747Z,12.85
2023-03-15T18:11:18.755Z,11.10
2023-03-15T18:13:45.556Z,11.77
2023-03-15T18:16:12.411Z,16.08
2023-03-15T18:18:39.508Z,15.18
2023-03-15T18:21:06.666Z,15.50
2023-03-15T18:23:33.485Z,15.73
2023-03-15T18:26:02.101Z,20.67
2023-03-15T18:28:29.029Z,15.75
2023-03-15T18:30:55.752Z,12.40
2023-03-15T18:33:22.601Z,15.85
2023-03-15T18:35:49.474Z,15.05
2023-03-15T18:38:16.470Z,19.70
2023-03-15T18:40:43.321Z,15.18
2023-03-15T18:43:14.202Z,13.82
2023-03-15T18:45:41.126Z,16.17
2023-03-15T18:48:08.026Z,15.63
2023-03-15T18:50:35.025Z,11.43
2023-03-15T18:53:02.837Z,13.68
2023-03-15T18:55:30.943Z,10.45
2023-03-15T18:57:57.817Z,7.38
2023-03-15T19:00:27.383Z,9.48
2023-03-15T19:02:58.796Z,10.07
2023-03-15T19:05:26.499Z,8.73
2023-03-15T19:07:53.936Z,9.02
2023-03-15T19:10:21.555Z,12.48
2023-03-15T19:12:48.735Z,14.35
2023-03-15T19:15:17.494Z,11.55
2023-03-15T19:17:46.237Z,13.80
2023-03-15T19:20:14.461Z,16.27
2023-03-15T19:22:41.819Z,16.23
2023-03-15T19:25:11.619Z,14.73
2023-03-15T19:27:38.606Z,13.60
2023-03-15T19:30:08.854Z,14.82
2023-03-15T19:32:36.095Z,13.13
2023-03-15T19:35:02.910Z,18.17
2023-03-15T19:37:29.658Z,12.82
2023-03-15T19:39:56.441Z,14.40
2023-03-15T19:42:23.199Z,11.32
2023-03-15T19:44:49.973Z,11.90
2023-03-15T19:47:16.796Z,11.73
2023-03-15T19:49:43.506Z,11.77
2023-03-15T19:52:11.278Z,12.15
2023-03-15T19:54:37.944Z,15.13
2023-03-15T19:57:04.759Z,17.00
2023-03-15T19:59:35.644Z,18.23
2023-03-15T20:02:02.619Z,21.00
2023-03-15T20:04:29.343Z,18.90
2023-03-15T20:06:56.226Z,20.60
2023-03-15T20:09:22.930Z,16.58
2023-03-15T20:11:49.647Z,18.88
2023-03-15T20:14:24.769Z,20.08
2023-03-15T20:17:05.631Z,17.08
2023-03-15T20:19:42.860Z,22.85
2023-03-15T20:22:12.130Z,19.02
2023-03-15T20:24:49.800Z,23.83
2023-03-15T20:27:23.102Z,21.10
2023-03-15T20:29:52.483Z,20.17
2023-03-15T20:32:23.964Z,21.02
2023-03-15T20:34:57.640Z,27.67
2023-03-15T20:37:31.640Z,24.95
2023-03-15T20:40:09.381Z,23.73
2023-03-15T20:42:39.408Z,21.20
2023-03-15T20:45:18.548Z,18.48
2023-03-15T20:47:49.856Z,20.80
2023-03-15T20:50:25.918Z,20.40
2023-03-15T20:52:55.554Z,18.23
2023-03-15T20:55:45.712Z,18.98
2023-03-15T20:58:27.426Z,23.77
2023-03-15T21:01:30.411Z,23.02
2023-03-15T21:03:57.915Z,20.63
2023-03-15T21:06:25.127Z,22.73
2023-03-15T21:08:52.386Z,29.50
2023-03-15T21:11:21.027Z,25.90
2023-03-15T21:13:48.110Z,22.20
2023-03-15T21:16:18.776Z,24.92
2023-03-15T21:18:51.927Z,24.40
2023-03-15T21:23:47.349Z,22.90
2023-03-15T21:26:17.724Z,22.05
2023-03-15T21:28:46.149Z,22.92
2023-03-15T21:31:14.589Z,23.08
2023-03-15T21:33:41.861Z,23.15
2023-03-15T21:36:12.379Z,23.30
2023-03-15T21:38:39.628Z,23.60
2023-03-15T21:41:11.926Z,25.42
2023-03-15T21:43:41.125Z,21.20
2023-03-15T21:46:16.763Z,24.63
2023-03-15T21:48:46.990Z,20.55
2023-03-15T21:51:14.750Z,22.52
2023-03-15T21:53:46.527Z,25.50
2023-03-15T21:56:14.180Z,22.38
2023-03-15T21:58:45.103Z,25.70
2023-03-15T22:01:14.322Z,20.70
2023-03-15T22:03:44.361Z,23.05
2023-03-15T22:06:14.972Z,25.08
2023-03-15T22:08:44.888Z,26.75
2023-03-15T22:11:18.671Z,24.38
2023-03-15T22:13:45.927Z,23.45
2023-03-15T22:16:25.328Z,20.75
2023-03-15T22:18:59.695Z,20.45
2023-03-15T22:21:55.108Z,23.45
2023-03-15T22:24:27.423Z,21.55
2023-03-15T22:26:54.737Z,20.90
2023-03-15T22:29:21.868Z,21.92
2023-03-15T22:31:54.808Z,23.02
2023-03-15T22:34:22.059Z,35.80
2023-03-15T22:37:02.674Z,34.20
2023-03-15T22:39:30.767Z,27.75
2023-03-15T22:41:58.198Z,23.38
2023-03-15T22:44:46.804Z,25.35
2023-03-15T22:47:22.434Z,23.55
2023-03-15T22:50:02.778Z,28.05
2023-03-15T22:52:32.712Z,29.55
2023-03-15T22:55:12.869Z,28.25
2023-03-15T22:57:46.130Z,32.10
2023-03-15T23:00:18.299Z,29.42
2023-03-15T23:02:45.860Z,32.93
2023-03-15T23:05:17.131Z,31.48
2023-03-15T23:07:47.325Z,36.35
2023-03-15T23:10:24.526Z,36.60
2023-03-15T23:12:52.776Z,31.70
2023-03-15T23:15:23.510Z,28.75
2023-03-15T23:17:55.788Z,34.03
2023-03-15T23:20:23.925Z,24.63
2023-03-15T23:22:54.327Z,28.45
2023-03-15T23:25:22.931Z,25.33
2023-03-15T23:27:51.801Z,28.75
2023-03-15T23:30:26.769Z,27.40
2023-03-15T23:32:57.826Z,27.15
2023-03-15T23:35:28.258Z,24.55
2023-03-15T23:38:00.853Z,25.35
2023-03-15T23:40:31.324Z,29.52
2023-03-15T23:43:04.590Z,24.80
2023-03-15T23:45:33.133Z,24.60
2023-03-15T23:48:03.221Z,26.05
2023-03-15T23:50:33.814Z,28.55
2023-03-15T23:53:06.396Z,27.45
2023-03-15T23:55:35.900Z,27.60
2023-03-15T23:58:03.942Z,27.20
